sensor_id;sensor_type;location;lat;lon;timestamp;temperature;humidity
38514;DHT22;24282;48.400;10.808;2023-12-29T00:01:56;7.60;77.90
38514;DHT22;24282;48.400;10.808;2023-12-29T00:30:17;7.50;76.40
38514;DHT22;24282;48.400;10.808;2023-12-29T00:32:43;7.50;76.40
38514;DHT22;24282;48.400;10.808;2023-12-29T00:35:09;7.50;76.50
38514;DHT22;24282;48.400;10.808;2023-12-29T00:37:35;7.50;76.60
38514;DHT22;24282;48.400;10.808;2023-12-29T00:40:00;7.60;76.50
38514;DHT22;24282;48.400;10.808;2023-12-29T00:42:26;7.50;76.60
38514;DHT22;24282;48.400;10.808;2023-12-29T00:44:52;7.50;76.80
38514;DHT22;24282;48.400;10.808;2023-12-29T00:47:17;7.50;76.60
38514;DHT22;24282;48.400;10.808;2023-12-29T00:49:45;7.50;76.70
38514;DHT22;24282;48.400;10.808;2023-12-29T00:52:10;7.60;76.70
38514;DHT22;24282;48.400;10.808;2023-12-29T00:54:36;7.70;76.60
38514;DHT22;24282;48.400;10.808;2023-12-29T00:57:02;7.70;76.40
38514;DHT22;24282;48.400;10.808;2023-12-29T00:59:27;7.70;76.50
38514;DHT22;24282;48.400;10.808;2023-12-29T01:01:53;7.80;76.10
38514;DHT22;24282;48.400;10.808;2023-12-29T01:04:19;7.90;75.80
38514;DHT22;24282;48.400;10.808;2023-12-29T01:06:44;7.80;75.90
38514;DHT22;24282;48.400;10.808;2023-12-29T01:09:10;7.80;76.10
38514;DHT22;24282;48.400;10.808;2023-12-29T01:11:37;7.80;75.70
38514;DHT22;24282;48.400;10.808;2023-12-29T01:14:03;7.80;75.60
38514;DHT22;24282;48.400;10.808;2023-12-29T01:16:28;7.80;75.80
38514;DHT22;24282;48.400;10.808;2023-12-29T01:18:54;7.70;75.90
38514;DHT22;24282;48.400;10.808;2023-12-29T01:21:21;7.70;75.90
38514;DHT22;24282;48.400;10.808;2023-12-29T01:23:46;7.70;76.00
38514;DHT22;24282;48.400;10.808;2023-12-29T01:26:12;7.60;76.20
38514;DHT22;24282;48.400;10.808;2023-12-29T01:28:38;7.50;76.40
38514;DHT22;24282;48.400;10.808;2023-12-29T01:31:03;7.50;76.40
38514;DHT22;24282;48.400;10.808;2023-12-29T01:33:30;7.50;76.60
38514;DHT22;24282;48.400;10.808;2023-12-29T01:35:56;7.50;76.50
38514;DHT22;24282;48.400;10.808;2023-12-29T01:38:22;7.40;76.30
38514;DHT22;24282;48.400;10.808;2023-12-29T01:40:48;7.50;76.20
38514;DHT22;24282;48.400;10.808;2023-12-29T01:43:14;7.50;76.20
38514;DHT22;24282;48.400;10.808;2023-12-29T01:45:39;7.50;76.20
38514;DHT22;24282;48.400;10.808;2023-12-29T01:48:06;7.40;76.20
38514;DHT22;24282;48.400;10.808;2023-12-29T01:50:32;7.40;76.50
38514;DHT22;24282;48.400;10.808;2023-12-29T01:53:01;7.40;76.50
38514;DHT22;24282;48.400;10.808;2023-12-29T01:55:28;7.40;76.50
38514;DHT22;24282;48.400;10.808;2023-12-29T01:57:56;7.30;76.70
38514;DHT22;24282;48.400;10.808;2023-12-29T02:00:21;7.40;76.60
38514;DHT22;24282;48.400;10.808;2023-12-29T02:02:49;7.40;76.30
38514;DHT22;24282;48.400;10.808;2023-12-29T02:05:16;7.40;76.40
38514;DHT22;24282;48.400;10.808;2023-12-29T02:07:42;7.30;76.50
38514;DHT22;24282;48.400;10.808;2023-12-29T02:10:09;7.30;76.60
38514;DHT22;24282;48.400;10.808;2023-12-29T02:12:39;7.30;76.60
38514;DHT22;24282;48.400;10.808;2023-12-29T02:15:08;7.30;76.30
38514;DHT22;24282;48.400;10.808;2023-12-29T02:17:44;7.30;76.20
38514;DHT22;24282;48.400;10.808;2023-12-29T02:20:10;7.30;76.20
38514;DHT22;24282;48.400;10.808;2023-12-29T02:22:37;7.40;75.80
38514;DHT22;24282;48.400;10.808;2023-12-29T02:25:05;7.30;76.00
38514;DHT22;24282;48.400;10.808;2023-12-29T02:32:41;7.50;75.60
38514;DHT22;24282;48.400;10.808;2023-12-29T02:35:10;7.50;75.10
38514;DHT22;24282;48.400;10.808;2023-12-29T02:37:39;7.40;75.20
38514;DHT22;24282;48.400;10.808;2023-12-29T02:40:06;7.50;75.00
38514;DHT22;24282;48.400;10.808;2023-12-29T02:42:32;7.40;75.20
38514;DHT22;24282;48.400;10.808;2023-12-29T02:44:58;7.50;75.20
38514;DHT22;24282;48.400;10.808;2023-12-29T02:47:25;7.40;75.40
38514;DHT22;24282;48.400;10.808;2023-12-29T02:49:51;7.40;75.20
38514;DHT22;24282;48.400;10.808;2023-12-29T02:52:16;7.40;75.10
38514;DHT22;24282;48.400;10.808;2023-12-29T02:54:42;7.40;75.00
38514;DHT22;24282;48.400;10.808;2023-12-29T02:57:08;7.40;74.90
38514;DHT22;24282;48.400;10.808;2023-12-29T02:59:34;7.30;74.90
38514;DHT22;24282;48.400;10.808;2023-12-29T03:02:00;7.30;75.00
38514;DHT22;24282;48.400;10.808;2023-12-29T03:04:27;7.40;74.80
38514;DHT22;24282;48.400;10.808;2023-12-29T03:06:53;7.40;74.40
38514;DHT22;24282;48.400;10.808;2023-12-29T03:09:19;7.40;74.50
38514;DHT22;24282;48.400;10.808;2023-12-29T03:11:46;7.40;74.40
38514;DHT22;24282;48.400;10.808;2023-12-29T03:14:11;7.40;74.40
38514;DHT22;24282;48.400;10.808;2023-12-29T03:16:40;7.40;74.40
38514;DHT22;24282;48.400;10.808;2023-12-29T03:19:06;7.40;74.40
38514;DHT22;24282;48.400;10.808;2023-12-29T03:21:34;7.40;74.50
38514;DHT22;24282;48.400;10.808;2023-12-29T03:24:00;7.30;74.50
38514;DHT22;24282;48.400;10.808;2023-12-29T03:26:26;7.30;74.60
38514;DHT22;24282;48.400;10.808;2023-12-29T03:28:51;7.30;74.70
38514;DHT22;24282;48.400;10.808;2023-12-29T03:31:17;7.30;74.60
38514;DHT22;24282;48.400;10.808;2023-12-29T03:33:43;7.30;74.80
38514;DHT22;24282;48.400;10.808;2023-12-29T03:36:09;7.30;74.70
38514;DHT22;24282;48.400;10.808;2023-12-29T03:38:35;7.40;74.50
38514;DHT22;24282;48.400;10.808;2023-12-29T03:41:03;7.40;74.40
38514;DHT22;24282;48.400;10.808;2023-12-29T03:43:28;7.40;74.10
38514;DHT22;24282;48.400;10.808;2023-12-29T03:45:54;7.50;73.90
38514;DHT22;24282;48.400;10.808;2023-12-29T03:48:20;7.60;73.50
38514;DHT22;24282;48.400;10.808;2023-12-29T03:50:45;7.70;73.30
38514;DHT22;24282;48.400;10.808;2023-12-29T03:53:11;7.60;73.20
38514;DHT22;24282;48.400;10.808;2023-12-29T03:55:37;7.70;73.00
38514;DHT22;24282;48.400;10.808;2023-12-29T03:58:03;7.70;72.90
38514;DHT22;24282;48.400;10.808;2023-12-29T04:00:29;7.70;72.70
38514;DHT22;24282;48.400;10.808;2023-12-29T04:02:54;7.70;72.80
38514;DHT22;24282;48.400;10.808;2023-12-29T04:05:20;7.70;72.90
38514;DHT22;24282;48.400;10.808;2023-12-29T04:07:46;7.60;73.00
38514;DHT22;24282;48.400;10.808;2023-12-29T04:10:11;7.70;72.70
38514;DHT22;24282;48.400;10.808;2023-12-29T04:12:37;7.60;72.90
38514;DHT22;24282;48.400;10.808;2023-12-29T04:15:04;7.60;73.20
38514;DHT22;24282;48.400;10.808;2023-12-29T04:17:30;7.60;73.10
38514;DHT22;24282;48.400;10.808;2023-12-29T04:19:55;7.50;72.90
38514;DHT22;24282;48.400;10.808;2023-12-29T04:22:22;7.50;73.10
38514;DHT22;24282;48.400;10.808;2023-12-29T04:24:47;7.50;73.20
38514;DHT22;24282;48.400;10.808;2023-12-29T04:27:14;7.50;73.10
38514;DHT22;24282;48.400;10.808;2023-12-29T04:29:40;7.50;73.30
38514;DHT22;24282;48.400;10.808;2023-12-29T04:32:06;7.50;73.20
38514;DHT22;24282;48.400;10.808;2023-12-29T04:34:31;7.50;73.40
38514;DHT22;24282;48.400;10.808;2023-12-29T04:36:57;7.40;73.50
38514;DHT22;24282;48.400;10.808;2023-12-29T04:39:23;7.40;73.60
38514;DHT22;24282;48.400;10.808;2023-12-29T04:41:50;7.40;73.70
38514;DHT22;24282;48.400;10.808;2023-12-29T04:44:16;7.40;73.70
38514;DHT22;24282;48.400;10.808;2023-12-29T04:46:42;7.30;73.70
38514;DHT22;24282;48.400;10.808;2023-12-29T04:49:08;7.30;73.70
38514;DHT22;24282;48.400;10.808;2023-12-29T04:51:34;7.40;73.30
38514;DHT22;24282;48.400;10.808;2023-12-29T04:53:59;7.50;72.80
38514;DHT22;24282;48.400;10.808;2023-12-29T04:56:25;7.50;72.70
38514;DHT22;24282;48.400;10.808;2023-12-29T04:58:51;7.40;72.90
38514;DHT22;24282;48.400;10.808;2023-12-29T05:01:17;7.40;72.90
38514;DHT22;24282;48.400;10.808;2023-12-29T05:03:43;7.40;72.70
38514;DHT22;24282;48.400;10.808;2023-12-29T05:06:08;7.50;72.30
38514;DHT22;24282;48.400;10.808;2023-12-29T05:08:34;7.40;72.30
38514;DHT22;24282;48.400;10.808;2023-12-29T05:11:00;7.40;72.50
38514;DHT22;24282;48.400;10.808;2023-12-29T05:13:26;7.40;72.40
38514;DHT22;24282;48.400;10.808;2023-12-29T05:15:52;7.40;72.50
38514;DHT22;24282;48.400;10.808;2023-12-29T05:18:17;7.40;72.60
38514;DHT22;24282;48.400;10.808;2023-12-29T05:20:43;7.40;72.80
38514;DHT22;24282;48.400;10.808;2023-12-29T05:23:09;7.40;72.70
38514;DHT22;24282;48.400;10.808;2023-12-29T05:25:34;7.40;72.70
38514;DHT22;24282;48.400;10.808;2023-12-29T05:28:00;7.40;72.30
38514;DHT22;24282;48.400;10.808;2023-12-29T05:30:26;7.40;72.30
38514;DHT22;24282;48.400;10.808;2023-12-29T05:32:53;7.40;72.30
38514;DHT22;24282;48.400;10.808;2023-12-29T05:35:19;7.40;72.30
38514;DHT22;24282;48.400;10.808;2023-12-29T05:37:44;7.50;72.20
38514;DHT22;24282;48.400;10.808;2023-12-29T05:40:10;7.50;72.30
38514;DHT22;24282;48.400;10.808;2023-12-29T05:42:36;7.50;72.40
38514;DHT22;24282;48.400;10.808;2023-12-29T05:45:02;7.50;72.60
38514;DHT22;24282;48.400;10.808;2023-12-29T05:47:29;7.50;72.60
38514;DHT22;24282;48.400;10.808;2023-12-29T05:49:55;7.60;72.50
38514;DHT22;24282;48.400;10.808;2023-12-29T05:52:21;7.70;72.30
38514;DHT22;24282;48.400;10.808;2023-12-29T05:54:47;7.80;71.90
38514;DHT22;24282;48.400;10.808;2023-12-29T05:57:12;7.90;71.90
38514;DHT22;24282;48.400;10.808;2023-12-29T05:59:38;8.00;71.60
38514;DHT22;24282;48.400;10.808;2023-12-29T06:02:05;8.00;71.50
38514;DHT22;24282;48.400;10.808;2023-12-29T06:04:30;8.00;71.50
38514;DHT22;24282;48.400;10.808;2023-12-29T06:06:56;8.00;71.50
38514;DHT22;24282;48.400;10.808;2023-12-29T06:09:22;8.00;71.50
38514;DHT22;24282;48.400;10.808;2023-12-29T06:11:48;8.00;71.80
38514;DHT22;24282;48.400;10.808;2023-12-29T06:14:13;8.00;71.80
38514;DHT22;24282;48.400;10.808;2023-12-29T06:16:40;7.90;71.90
38514;DHT22;24282;48.400;10.808;2023-12-29T06:19:06;8.00;71.80
38514;DHT22;24282;48.400;10.808;2023-12-29T06:21:31;7.90;71.70
38514;DHT22;24282;48.400;10.808;2023-12-29T06:23:57;7.90;72.00
38514;DHT22;24282;48.400;10.808;2023-12-29T06:26:23;7.90;72.10
38514;DHT22;24282;48.400;10.808;2023-12-29T06:28:49;7.80;72.30
38514;DHT22;24282;48.400;10.808;2023-12-29T06:31:17;7.80;72.60
38514;DHT22;24282;48.400;10.808;2023-12-29T06:33:43;7.80;72.80
38514;DHT22;24282;48.400;10.808;2023-12-29T06:36:11;7.80;73.00
38514;DHT22;24282;48.400;10.808;2023-12-29T06:38:37;7.90;73.10
38514;DHT22;24282;48.400;10.808;2023-12-29T06:41:03;8.00;72.40
38514;DHT22;24282;48.400;10.808;2023-12-29T06:43:30;8.10;72.30
38514;DHT22;24282;48.400;10.808;2023-12-29T06:45:56;8.10;72.40
38514;DHT22;24282;48.400;10.808;2023-12-29T06:48:21;8.10;72.50
38514;DHT22;24282;48.400;10.808;2023-12-29T06:50:47;8.00;72.70
38514;DHT22;24282;48.400;10.808;2023-12-29T06:53:13;8.00;72.70
38514;DHT22;24282;48.400;10.808;2023-12-29T06:55:39;8.10;72.70
38514;DHT22;24282;48.400;10.808;2023-12-29T06:58:05;8.20;72.60
38514;DHT22;24282;48.400;10.808;2023-12-29T07:00:31;8.20;72.70
38514;DHT22;24282;48.400;10.808;2023-12-29T07:02:56;8.20;73.00
38514;DHT22;24282;48.400;10.808;2023-12-29T07:05:22;8.30;72.80
38514;DHT22;24282;48.400;10.808;2023-12-29T07:07:48;8.30;73.10
38514;DHT22;24282;48.400;10.808;2023-12-29T07:10:14;8.30;72.90
38514;DHT22;24282;48.400;10.808;2023-12-29T07:12:43;8.30;73.10
38514;DHT22;24282;48.400;10.808;2023-12-29T07:15:09;8.30;73.20
38514;DHT22;24282;48.400;10.808;2023-12-29T07:17:35;8.20;73.40
38514;DHT22;24282;48.400;10.808;2023-12-29T07:20:01;8.20;73.70
38514;DHT22;24282;48.400;10.808;2023-12-29T07:22:27;8.10;74.00
38514;DHT22;24282;48.400;10.808;2023-12-29T07:24:53;8.10;74.20
38514;DHT22;24282;48.400;10.808;2023-12-29T07:27:19;8.20;74.40
38514;DHT22;24282;48.400;10.808;2023-12-29T07:29:44;8.20;74.30
38514;DHT22;24282;48.400;10.808;2023-12-29T07:32:10;8.40;74.00
38514;DHT22;24282;48.400;10.808;2023-12-29T07:34:36;8.40;74.10
38514;DHT22;24282;48.400;10.808;2023-12-29T07:37:01;8.30;74.40
38514;DHT22;24282;48.400;10.808;2023-12-29T07:39:28;8.30;77.90
38514;DHT22;24282;48.400;10.808;2023-12-29T07:41:53;8.30;76.10
38514;DHT22;24282;48.400;10.808;2023-12-29T07:44:22;8.40;74.90
38514;DHT22;24282;48.400;10.808;2023-12-29T07:46:48;8.30;75.00
38514;DHT22;24282;48.400;10.808;2023-12-29T07:49:14;8.30;75.30
38514;DHT22;24282;48.400;10.808;2023-12-29T07:51:46;8.30;75.60
38514;DHT22;24282;48.400;10.808;2023-12-29T07:54:12;8.20;75.70
38514;DHT22;24282;48.400;10.808;2023-12-29T07:56:37;8.10;76.10
38514;DHT22;24282;48.400;10.808;2023-12-29T07:59:04;8.20;76.40
38514;DHT22;24282;48.400;10.808;2023-12-29T08:01:30;8.10;76.50
38514;DHT22;24282;48.400;10.808;2023-12-29T08:03:55;8.00;76.70
38514;DHT22;24282;48.400;10.808;2023-12-29T08:06:22;8.00;77.00
38514;DHT22;24282;48.400;10.808;2023-12-29T08:08:48;8.00;77.10
38514;DHT22;24282;48.400;10.808;2023-12-29T08:11:17;7.90;77.30
38514;DHT22;24282;48.400;10.808;2023-12-29T08:13:48;7.90;77.50
38514;DHT22;24282;48.400;10.808;2023-12-29T08:16:14;7.80;77.70
38514;DHT22;24282;48.400;10.808;2023-12-29T08:18:40;7.90;77.80
38514;DHT22;24282;48.400;10.808;2023-12-29T08:21:06;7.90;77.80
38514;DHT22;24282;48.400;10.808;2023-12-29T08:23:31;7.90;77.80
38514;DHT22;24282;48.400;10.808;2023-12-29T08:25:57;7.90;77.90
38514;DHT22;24282;48.400;10.808;2023-12-29T08:28:26;7.90;77.90
38514;DHT22;24282;48.400;10.808;2023-12-29T08:30:52;7.90;77.90
38514;DHT22;24282;48.400;10.808;2023-12-29T08:33:18;7.90;77.90
38514;DHT22;24282;48.400;10.808;2023-12-29T08:35:44;7.90;77.90
38514;DHT22;24282;48.400;10.808;2023-12-29T08:38:11;7.90;78.00
38514;DHT22;24282;48.400;10.808;2023-12-29T08:40:37;7.90;77.90
38514;DHT22;24282;48.400;10.808;2023-12-29T08:43:03;8.00;78.20
38514;DHT22;24282;48.400;10.808;2023-12-29T08:45:29;8.00;78.20
38514;DHT22;24282;48.400;10.808;2023-12-29T08:47:54;8.00;78.10
38514;DHT22;24282;48.400;10.808;2023-12-29T08:50:20;8.00;78.30
38514;DHT22;24282;48.400;10.808;2023-12-29T08:52:47;8.10;78.20
38514;DHT22;24282;48.400;10.808;2023-12-29T08:55:13;8.20;78.20
38514;DHT22;24282;48.400;10.808;2023-12-29T08:57:38;8.20;78.40
38514;DHT22;24282;48.400;10.808;2023-12-29T09:00:04;8.20;78.50
38514;DHT22;24282;48.400;10.808;2023-12-29T09:02:30;8.30;78.50
38514;DHT22;24282;48.400;10.808;2023-12-29T09:04:56;8.50;78.10
38514;DHT22;24282;48.400;10.808;2023-12-29T09:07:22;8.50;77.80
38514;DHT22;24282;48.400;10.808;2023-12-29T09:09:47;8.50;77.80
38514;DHT22;24282;48.400;10.808;2023-12-29T09:12:13;8.70;77.20
38514;DHT22;24282;48.400;10.808;2023-12-29T09:14:39;8.70;77.10
38514;DHT22;24282;48.400;10.808;2023-12-29T09:17:04;8.80;76.90
38514;DHT22;24282;48.400;10.808;2023-12-29T09:19:30;9.00;76.10
38514;DHT22;24282;48.400;10.808;2023-12-29T09:21:56;9.10;75.90
38514;DHT22;24282;48.400;10.808;2023-12-29T09:24:22;9.20;75.40
38514;DHT22;24282;48.400;10.808;2023-12-29T09:26:48;9.40;75.20
38514;DHT22;24282;48.400;10.808;2023-12-29T09:29:13;9.30;75.10
38514;DHT22;24282;48.400;10.808;2023-12-29T09:31:39;9.30;75.20
38514;DHT22;24282;48.400;10.808;2023-12-29T09:34:05;9.30;75.30
38514;DHT22;24282;48.400;10.808;2023-12-29T09:36:31;9.30;75.30
38514;DHT22;24282;48.400;10.808;2023-12-29T09:38:56;9.30;75.20
38514;DHT22;24282;48.400;10.808;2023-12-29T09:41:24;9.40;75.20
38514;DHT22;24282;48.400;10.808;2023-12-29T09:43:51;9.40;75.20
38514;DHT22;24282;48.400;10.808;2023-12-29T09:46:17;9.30;75.50
38514;DHT22;24282;48.400;10.808;2023-12-29T09:48:47;9.30;75.70
38514;DHT22;24282;48.400;10.808;2023-12-29T09:51:15;9.30;76.00
38514;DHT22;24282;48.400;10.808;2023-12-29T09:53:41;9.40;76.00
38514;DHT22;24282;48.400;10.808;2023-12-29T09:56:08;9.40;76.10
38514;DHT22;24282;48.400;10.808;2023-12-29T09:58:36;9.50;75.90
38514;DHT22;24282;48.400;10.808;2023-12-29T10:01:06;9.70;75.70
38514;DHT22;24282;48.400;10.808;2023-12-29T10:03:32;9.70;75.30
38514;DHT22;24282;48.400;10.808;2023-12-29T10:06:00;9.70;75.40
38514;DHT22;24282;48.400;10.808;2023-12-29T10:08:28;9.80;75.10
38514;DHT22;24282;48.400;10.808;2023-12-29T10:10:58;9.80;75.10
38514;DHT22;24282;48.400;10.808;2023-12-29T10:13:25;9.80;75.00
38514;DHT22;24282;48.400;10.808;2023-12-29T10:16:14;9.80;74.90
38514;DHT22;24282;48.400;10.808;2023-12-29T10:18:45;9.70;75.10
38514;DHT22;24282;48.400;10.808;2023-12-29T10:21:27;9.70;75.40
38514;DHT22;24282;48.400;10.808;2023-12-29T10:23:58;9.70;75.50
38514;DHT22;24282;48.400;10.808;2023-12-29T10:26:25;9.80;75.10
38514;DHT22;24282;48.400;10.808;2023-12-29T10:28:52;9.90;75.10
38514;DHT22;24282;48.400;10.808;2023-12-29T10:31:18;10.00;75.00
38514;DHT22;24282;48.400;10.808;2023-12-29T10:33:44;10.00;74.80
38514;DHT22;24282;48.400;10.808;2023-12-29T10:36:09;10.00;74.80
38514;DHT22;24282;48.400;10.808;2023-12-29T10:38:39;10.00;74.70
38514;DHT22;24282;48.400;10.808;2023-12-29T10:43:38;10.10;75.00
38514;DHT22;24282;48.400;10.808;2023-12-29T10:46:07;10.20;74.90
38514;DHT22;24282;48.400;10.808;2023-12-29T10:48:37;10.30;74.00
38514;DHT22;24282;48.400;10.808;2023-12-29T10:51:04;10.20;74.70
38514;DHT22;24282;48.400;10.808;2023-12-29T10:53:36;10.30;74.40
38514;DHT22;24282;48.400;10.808;2023-12-29T10:56:02;10.30;74.60
38514;DHT22;24282;48.400;10.808;2023-12-29T10:58:29;10.40;74.30
38514;DHT22;24282;48.400;10.808;2023-12-29T11:00:55;10.30;74.20
38514;DHT22;24282;48.400;10.808;2023-12-29T11:03:22;10.40;74.40
38514;DHT22;24282;48.400;10.808;2023-12-29T11:05:48;10.40;74.60
38514;DHT22;24282;48.400;10.808;2023-12-29T11:08:20;10.50;74.00
38514;DHT22;24282;48.400;10.808;2023-12-29T11:10:50;10.50;74.00
38514;DHT22;24282;48.400;10.808;2023-12-29T11:13:16;10.50;74.00
38514;DHT22;24282;48.400;10.808;2023-12-29T11:15:43;10.50;73.70
38514;DHT22;24282;48.400;10.808;2023-12-29T11:18:16;10.50;73.90
38514;DHT22;24282;48.400;10.808;2023-12-29T11:20:44;10.50;73.80
38514;DHT22;24282;48.400;10.808;2023-12-29T11:23:11;10.50;73.80
38514;DHT22;24282;48.400;10.808;2023-12-29T11:25:39;10.50;73.80
38514;DHT22;24282;48.400;10.808;2023-12-29T11:28:10;10.50;74.00
38514;DHT22;24282;48.400;10.808;2023-12-29T11:30:37;10.50;74.00
38514;DHT22;24282;48.400;10.808;2023-12-29T11:33:12;10.60;73.60
38514;DHT22;24282;48.400;10.808;2023-12-29T11:38:38;10.60;73.80
38514;DHT22;24282;48.400;10.808;2023-12-29T11:41:13;10.70;73.40
38514;DHT22;24282;48.400;10.808;2023-12-29T11:43:42;10.70;73.20
38514;DHT22;24282;48.400;10.808;2023-12-29T11:46:40;10.80;73.00
38514;DHT22;24282;48.400;10.808;2023-12-29T11:49:09;10.80;72.70
38514;DHT22;24282;48.400;10.808;2023-12-29T11:51:41;10.80;72.80
38514;DHT22;24282;48.400;10.808;2023-12-29T11:54:09;10.70;73.00
38514;DHT22;24282;48.400;10.808;2023-12-29T11:56:36;10.90;72.50
38514;DHT22;24282;48.400;10.808;2023-12-29T12:01:41;10.80;72.60
38514;DHT22;24282;48.400;10.808;2023-12-29T12:04:36;10.80;72.50
38514;DHT22;24282;48.400;10.808;2023-12-29T12:09:51;10.80;72.80
38514;DHT22;24282;48.400;10.808;2023-12-29T12:12:44;10.80;72.70
38514;DHT22;24282;48.400;10.808;2023-12-29T12:17:55;10.70;72.50
38514;DHT22;24282;48.400;10.808;2023-12-29T12:20:22;10.70;73.10
38514;DHT22;24282;48.400;10.808;2023-12-29T12:22:50;10.70;73.10
38514;DHT22;24282;48.400;10.808;2023-12-29T12:25:20;10.80;72.90
38514;DHT22;24282;48.400;10.808;2023-12-29T12:27:46;10.90;72.60
38514;DHT22;24282;48.400;10.808;2023-12-29T12:30:18;10.80;72.90
38514;DHT22;24282;48.400;10.808;2023-12-29T12:32:44;10.80;72.80
38514;DHT22;24282;48.400;10.808;2023-12-29T12:35:14;10.90;72.20
38514;DHT22;24282;48.400;10.808;2023-12-29T12:37:41;10.80;72.60
38514;DHT22;24282;48.400;10.808;2023-12-29T12:40:07;10.70;73.10
38514;DHT22;24282;48.400;10.808;2023-12-29T12:42:40;10.80;72.60
38514;DHT22;24282;48.400;10.808;2023-12-29T12:45:11;10.80;72.40
38514;DHT22;24282;48.400;10.808;2023-12-29T12:47:45;10.70;72.50
38514;DHT22;24282;48.400;10.808;2023-12-29T12:50:15;10.70;73.10
38514;DHT22;24282;48.400;10.808;2023-12-29T12:52:40;10.60;73.10
38514;DHT22;24282;48.400;10.808;2023-12-29T12:55:07;10.70;72.90
38514;DHT22;24282;48.400;10.808;2023-12-29T12:57:34;10.70;73.10
38514;DHT22;24282;48.400;10.808;2023-12-29T13:00:01;10.70;72.80
38514;DHT22;24282;48.400;10.808;2023-12-29T13:02:28;10.80;72.70
38514;DHT22;24282;48.400;10.808;2023-12-29T13:04:55;10.80;72.80
38514;DHT22;24282;48.400;10.808;2023-12-29T13:07:21;10.80;72.70
38514;DHT22;24282;48.400;10.808;2023-12-29T13:09:48;10.80;72.90
38514;DHT22;24282;48.400;10.808;2023-12-29T13:12:15;10.70;73.00
38514;DHT22;24282;48.400;10.808;2023-12-29T13:14:42;10.70;73.00
38514;DHT22;24282;48.400;10.808;2023-12-29T13:17:12;10.70;73.10
38514;DHT22;24282;48.400;10.808;2023-12-29T13:19:39;10.70;73.20
38514;DHT22;24282;48.400;10.808;2023-12-29T13:22:09;10.70;73.00
38514;DHT22;24282;48.400;10.808;2023-12-29T13:24:35;10.70;73.10
38514;DHT22;24282;48.400;10.808;2023-12-29T13:27:07;10.70;73.20
38514;DHT22;24282;48.400;10.808;2023-12-29T13:29:36;10.70;72.60
38514;DHT22;24282;48.400;10.808;2023-12-29T13:32:23;10.70;72.70
38514;DHT22;24282;48.400;10.808;2023-12-29T13:38:33;10.90;72.00
38514;DHT22;24282;48.400;10.808;2023-12-29T13:40:41;10.80;72.00
38514;DHT22;24282;48.400;10.808;2023-12-29T13:43:09;10.80;71.90
38514;DHT22;24282;48.400;10.808;2023-12-29T13:45:37;10.80;72.20
38514;DHT22;24282;48.400;10.808;2023-12-29T13:48:05;10.80;72.00
38514;DHT22;24282;48.400;10.808;2023-12-29T13:50:32;10.70;72.20
38514;DHT22;24282;48.400;10.808;2023-12-29T13:52:59;10.70;72.10
38514;DHT22;24282;48.400;10.808;2023-12-29T13:55:25;10.80;72.00
38514;DHT22;24282;48.400;10.808;2023-12-29T13:57:51;10.80;71.40
38514;DHT22;24282;48.400;10.808;2023-12-29T14:00:18;10.80;71.60
38514;DHT22;24282;48.400;10.808;2023-12-29T14:05:48;10.70;71.70
38514;DHT22;24282;48.400;10.808;2023-12-29T14:08:18;10.60;72.00
38514;DHT22;24282;48.400;10.808;2023-12-29T14:10:46;10.50;72.20
38514;DHT22;24282;48.400;10.808;2023-12-29T14:13:12;10.60;71.70
38514;DHT22;24282;48.400;10.808;2023-12-29T14:15:40;10.60;71.70
38514;DHT22;24282;48.400;10.808;2023-12-29T14:20:35;10.60;71.60
38514;DHT22;24282;48.400;10.808;2023-12-29T14:23:02;10.60;71.20
38514;DHT22;24282;48.400;10.808;2023-12-29T14:25:28;10.50;71.30
38514;DHT22;24282;48.400;10.808;2023-12-29T14:27:54;10.50;71.30
38514;DHT22;24282;48.400;10.808;2023-12-29T14:30:20;10.50;71.10
38514;DHT22;24282;48.400;10.808;2023-12-29T14:32:46;10.50;70.90
38514;DHT22;24282;48.400;10.808;2023-12-29T14:35:12;10.50;70.90
38514;DHT22;24282;48.400;10.808;2023-12-29T14:37:38;10.50;71.00
38514;DHT22;24282;48.400;10.808;2023-12-29T14:40:04;10.50;70.80
38514;DHT22;24282;48.400;10.808;2023-12-29T14:42:30;10.50;70.70
38514;DHT22;24282;48.400;10.808;2023-12-29T14:44:56;10.50;70.80
38514;DHT22;24282;48.400;10.808;2023-12-29T14:47:22;10.40;71.40
38514;DHT22;24282;48.400;10.808;2023-12-29T14:49:47;10.30;71.40
38514;DHT22;24282;48.400;10.808;2023-12-29T14:52:13;10.30;71.70
38514;DHT22;24282;48.400;10.808;2023-12-29T14:54:39;10.30;71.60
38514;DHT22;24282;48.400;10.808;2023-12-29T14:57:06;10.40;71.40
38514;DHT22;24282;48.400;10.808;2023-12-29T14:59:32;10.40;71.50
38514;DHT22;24282;48.400;10.808;2023-12-29T15:01:57;10.30;71.60
38514;DHT22;24282;48.400;10.808;2023-12-29T15:04:23;10.20;71.80
38514;DHT22;24282;48.400;10.808;2023-12-29T15:06:48;10.30;71.90
38514;DHT22;24282;48.400;10.808;2023-12-29T15:09:15;10.20;71.80
38514;DHT22;24282;48.400;10.808;2023-12-29T15:11:41;10.20;72.00
38514;DHT22;24282;48.400;10.808;2023-12-29T15:14:07;10.20;72.00
38514;DHT22;24282;48.400;10.808;2023-12-29T15:16:32;10.20;72.20
38514;DHT22;24282;48.400;10.808;2023-12-29T15:18:59;10.10;72.50
38514;DHT22;24282;48.400;10.808;2023-12-29T15:21:29;10.10;72.60
38514;DHT22;24282;48.400;10.808;2023-12-29T15:23:54;10.00;72.70
38514;DHT22;24282;48.400;10.808;2023-12-29T15:26:20;10.00;73.10
38514;DHT22;24282;48.400;10.808;2023-12-29T15:28:46;10.00;73.10
38514;DHT22;24282;48.400;10.808;2023-12-29T15:31:11;10.00;73.40
38514;DHT22;24282;48.400;10.808;2023-12-29T15:33:39;9.90;73.30
38514;DHT22;24282;48.400;10.808;2023-12-29T15:36:05;9.90;73.50
38514;DHT22;24282;48.400;10.808;2023-12-29T15:38:32;9.90;73.50
38514;DHT22;24282;48.400;10.808;2023-12-29T15:40:58;9.80;73.80
38514;DHT22;24282;48.400;10.808;2023-12-29T15:43:23;9.80;73.90
38514;DHT22;24282;48.400;10.808;2023-12-29T15:45:52;9.70;74.20
38514;DHT22;24282;48.400;10.808;2023-12-29T15:48:17;9.70;73.90
38514;DHT22;24282;48.400;10.808;2023-12-29T15:50:44;9.70;74.30
38514;DHT22;24282;48.400;10.808;2023-12-29T15:53:09;9.60;74.60
38514;DHT22;24282;48.400;10.808;2023-12-29T15:55:35;9.50;74.70
38514;DHT22;24282;48.400;10.808;2023-12-29T15:58:01;9.50;74.80
38514;DHT22;24282;48.400;10.808;2023-12-29T16:00:27;9.50;74.80
38514;DHT22;24282;48.400;10.808;2023-12-29T16:02:52;9.50;75.00
38514;DHT22;24282;48.400;10.808;2023-12-29T16:05:18;9.50;75.90
38514;DHT22;24282;48.400;10.808;2023-12-29T16:07:44;9.50;75.40
38514;DHT22;24282;48.400;10.808;2023-12-29T16:10:10;9.40;75.20
38514;DHT22;24282;48.400;10.808;2023-12-29T16:12:35;9.40;75.30
38514;DHT22;24282;48.400;10.808;2023-12-29T16:15:01;9.40;75.50
38514;DHT22;24282;48.400;10.808;2023-12-29T16:17:27;9.30;75.70
38514;DHT22;24282;48.400;10.808;2023-12-29T16:19:52;9.30;75.60